Columbus (CMH/KCMH)

Map

Destinations

Information

Location
Columbus, OH
Local Time
18:29 / 6:29 pm
GMT Time
22:29 / 10:29 pm
Gates
Unassigned
No FAA reported delays
METAR KCMH 272151Z 16005KT 10SM BKN110 18/11 A2989 RMK AO2 SLP119 T01830106
TAF KCMH 271752Z 2718/2818 20006KT P6SM SCT035 BKN200 FM272300 12004KT P6SM VCSH FEW040 BKN120 FM280300 13003KT 5SM -SHRA BR BKN040 OVC200 FM280800 09006KT 5SM -SHRA BR OVC015 FM281100 10006KT 5SM BR VCSH OVC009 FM281400 36009KT P6SM OVC009
  • No charts available